Time;durP1;ratioP1;P1;durP2;ratioP2;P2;SDS_P1;SDS_P2;PMS_P1;PMS_P2;Temp;Humidity;BMP_temperature;BMP_pressure;BME280_temperature;BME280_humidity;BME280_pressure;Samples;Min_cycle;Max_cycle;Signal;HPM_P1;HPM_P2
2021/01/05 00:02:03;;;;;;;44.33;19.05;;;;;;;3.30;63.79;100200.88;10422381;28;20049;-56
2021/01/05 00:07:05;;;;;;;46.95;18.65;;;;;;;3.35;63.54;100198.88;10421541;28;20046;-54
2021/01/05 00:12:09;;;;;;;49.50;19.95;;;;;;;3.27;63.79;100195.00;10421226;28;20115;-55
2021/01/05 00:17:13;;;;;;;43.38;18.13;;;;;;;3.30;64.30;100189.66;10421465;28;20064;-55
2021/01/05 00:22:15;;;;;;;49.10;20.60;;;;;;;3.19;63.61;100188.38;10420917;28;20514;-55
2021/01/05 00:27:18;;;;;;;47.88;18.38;;;;;;;3.05;63.99;100185.59;10420837;28;20052;-55
2021/01/05 00:32:24;;;;;;;48.88;19.52;;;;;;;3.18;64.14;100198.88;10420886;28;20056;-55
2021/01/05 00:37:26;;;;;;;44.47;16.67;;;;;;;3.40;63.37;100196.09;10421245;28;20493;-54
2021/01/05 00:42:28;;;;;;;43.15;17.73;;;;;;;3.43;63.10;100186.38;10420617;28;20418;-55
2021/01/05 00:47:30;;;;;;;61.00;24.20;;;;;;;3.34;63.54;100175.59;10419662;28;20107;-55
2021/01/05 00:52:31;;;;;;;42.10;20.23;;;;;;;3.25;63.82;100176.03;10420965;28;20041;-54
2021/01/05 00:57:35;;;;;;;46.13;18.27;;;;;;;3.27;64.14;100169.00;10435170;28;20057;-54
2021/01/05 01:02:37;;;;;;;49.10;19.13;;;;;;;3.40;63.04;100176.13;10434600;28;20147;-54
2021/01/05 01:07:39;;;;;;;44.22;18.65;;;;;;;3.49;63.12;100169.66;10419803;28;20098;-55
2021/01/05 01:12:42;;;;;;;41.08;17.27;;;;;;;3.54;63.10;100167.69;10434589;28;20045;-54
2021/01/05 01:17:44;;;;;;;47.28;18.58;;;;;;;3.60;63.46;100158.72;10420269;28;20057;-55
2021/01/05 01:22:50;;;;;;;46.08;18.55;;;;;;;3.45;63.54;100153.38;10434266;28;20481;-56
2021/01/05 01:27:54;;;;;;;44.40;17.63;;;;;;;3.29;63.36;100164.56;10418540;28;20049;-64
2021/01/05 01:33:07;;;;;;;43.55;18.02;;;;;;;3.22;63.41;100162.25;10437583;28;20056;-54
2021/01/05 01:38:12;;;;;;;57.05;21.05;;;;;;;3.08;63.85;100149.09;10434066;28;20428;-54
2021/01/05 01:43:35;;;;;;;52.88;19.92;;;;;;;2.99;63.62;100157.31;10435126;28;20049;-53
2021/01/05 01:48:46;;;;;;;53.20;21.60;;;;;;;2.84;63.94;100163.22;10434195;28;20127;-55
2021/01/05 01:54:26;;;;;;;61.10;20.73;;;;;;;2.80;64.46;100159.06;10433501;28;20049;-55
2021/01/05 01:59:57;;;;;;;52.47;21.25;;;;;;;2.76;63.89;100158.38;10417865;28;20331;-55
2021/01/05 02:05:18;;;;;;;54.17;20.58;;;;;;;2.79;63.94;100162.59;10418095;28;20068;-54
2021/01/05 02:10:49;;;;;;;53.92;20.08;;;;;;;2.73;64.03;100153.31;10416844;28;20061;-55
2021/01/05 02:16:07;;;;;;;57.70;20.52;;;;;;;2.70;64.11;100159.47;10413457;28;20057;-56
2021/01/05 02:21:16;;;;;;;47.85;18.60;;;;;;;2.61;63.92;100154.72;10417794;28;20045;-54
2021/01/05 02:26:29;;;;;;;50.97;21.30;;;;;;;2.70;64.28;100153.44;10416861;28;20378;-55
2021/01/05 02:31:45;;;;;;;57.55;21.70;;;;;;;2.68;64.00;100158.72;10432598;28;20049;-56
2021/01/05 02:37:00;;;;;;;51.72;19.52;;;;;;;2.62;64.01;100151.22;10432698;28;20132;-54
2021/01/05 02:43:12;;;;;;;57.25;18.55;;;;;;;2.66;64.39;100162.31;10372860;28;20434;-55
2021/01/05 02:48:50;;;;;;;58.17;18.85;;;;;;;2.61;63.87;100159.91;10413806;28;20072;-54
2021/01/05 02:54:37;;;;;;;52.67;20.10;;;;;;;2.54;64.27;100148.13;10416616;28;20104;-54
2021/01/05 03:00:46;;;;;;;56.42;20.75;;;;;;;2.52;64.54;100155.13;10416977;28;20061;-56
2021/01/05 03:06:24;;;;;;;48.60;17.05;;;;;;;2.44;64.47;100158.06;10416768;28;20556;-56
2021/01/05 03:11:57;;;;;;;66.97;22.75;;;;;;;2.53;64.79;100154.22;10417814;28;20060;-56
2021/01/05 03:17:25;;;;;;;45.15;15.45;;;;;;;2.46;63.67;100151.06;10418395;28;20052;-58
2021/01/05 03:22:54;;;;;;;53.05;19.13;;;;;;;2.36;64.59;100159.31;10418251;28;20075;-54
2021/01/05 03:28:19;;;;;;;48.28;17.73;;;;;;;2.52;64.58;100166.38;10424128;28;20517;-55
2021/01/05 03:33:39;;;;;;;;;;;;;;;2.66;64.62;100155.34;10423460;28;20053;-52
2021/01/05 03:39:00;;;;;;;50.90;17.85;;;;;;;2.66;64.42;100151.91;10423136;28;20349;-54
2021/01/05 03:44:20;;;;;;;58.35;20.02;;;;;;;2.66;64.58;100152.75;10423562;28;20489;-55
2021/01/05 03:49:40;;;;;;;50.58;17.08;;;;;;;2.63;64.27;100150.31;10428656;28;20068;-55
2021/01/05 03:55:01;;;;;;;57.08;19.15;;;;;;;2.66;64.75;100160.53;10424376;28;20046;-56
2021/01/05 04:00:26;;;;;;;54.78;19.92;;;;;;;2.66;64.79;100147.56;10422583;28;20068;-56
2021/01/05 04:05:28;;;;;;;63.78;20.70;;;;;;;2.82;64.45;100159.84;10425154;28;20565;-54
2021/01/05 04:10:31;;;;;;;55.90;19.58;;;;;;;2.91;64.28;100165.44;10424349;28;20482;-58
2021/01/05 04:15:33;;;;;;;59.05;18.25;;;;;;;2.98;64.38;100168.59;10421107;28;20045;-55
2021/01/05 04:20:34;;;;;;;60.42;17.23;;;;;;;2.98;63.93;100164.25;10421414;28;20402;-55
2021/01/05 04:25:37;;;;;;;177.38;32.97;;;;;;;2.89;64.15;100150.84;10421404;28;20393;-55
2021/01/05 04:30:39;;;;;;;106.55;24.85;;;;;;;2.94;63.64;100147.13;10423134;28;20466;-54
2021/01/05 04:35:41;;;;;;;130.32;25.90;;;;;;;2.98;63.75;100147.81;10420167;28;20045;-56
2021/01/05 04:40:47;;;;;;;119.72;25.27;;;;;;;2.94;63.93;100156.69;10421144;28;20046;-53
2021/01/05 04:46:00;;;;;;;72.22;22.05;;;;;;;2.89;64.40;100151.69;10420704;28;20041;-55
2021/01/05 04:51:06;;;;;;;264.25;40.35;;;;;;;2.79;64.36;100157.38;10421897;28;20377;-55
2021/01/05 04:56:11;;;;;;;81.97;22.55;;;;;;;2.76;64.94;100164.41;10420612;28;20058;-55
2021/01/05 05:01:17;;;;;;;105.15;24.73;;;;;;;2.88;64.44;100156.97;10435880;28;20057;-54
2021/01/05 05:06:31;;;;;;;194.45;33.58;;;;;;;3.02;64.27;100156.31;10420867;28;20415;-55
2021/01/05 05:11:46;;;;;;;156.82;28.88;;;;;;;3.04;64.41;100157.09;10434766;28;20045;-56
2021/01/05 05:17:07;;;;;;;103.13;25.08;;;;;;;2.91;64.16;100167.22;10419183;28;20045;-55
2021/01/05 05:22:14;;;;;;;193.02;35.38;;;;;;;2.99;64.51;100165.13;10419077;28;20072;-54
2021/01/05 05:27:25;;;;;;;81.63;21.13;;;;;;;3.13;64.17;100161.84;10419279;28;20045;-56
2021/01/05 05:32:31;;;;;;;96.72;23.92;;;;;;;3.08;64.15;100164.69;10419227;28;20378;-60
2021/01/05 05:37:53;;;;;;;79.15;22.20;;;;;;;2.99;64.05;100160.75;10436734;28;20041;-55
2021/01/05 05:43:14;;;;;;;124.68;24.10;;;;;;;2.89;64.04;100150.84;10420732;28;20045;-54
2021/01/05 05:48:25;;;;;;;141.48;30.67;;;;;;;2.86;64.77;100148.41;10418645;28;20060;-55
2021/01/05 05:53:31;;;;;;;102.57;25.48;;;;;;;2.84;64.62;100145.03;10418335;28;20041;-55
2021/01/05 05:58:39;;;;;;;151.93;32.28;;;;;;;2.91;64.71;100151.63;10419805;28;20092;-54
2021/01/05 06:03:42;;;;;;;174.30;35.95;;;;;;;2.91;64.21;100154.22;10419026;28;20041;-55
2021/01/05 06:08:43;;;;;;;78.03;25.75;;;;;;;2.94;64.41;100152.31;10421343;28;20084;-56
2021/01/05 06:13:46;;;;;;;58.13;20.55;;;;;;;2.95;64.59;100160.94;10417637;28;20046;-55
2021/01/05 06:18:47;;;;;;;63.63;20.08;;;;;;;2.95;64.71;100163.56;10417109;28;20049;-56
2021/01/05 06:23:49;;;;;;;69.03;17.95;;;;;;;3.02;64.52;100164.09;10416733;28;20394;-55
2021/01/05 06:28:51;;;;;;;51.00;18.80;;;;;;;2.91;64.94;100162.84;10416958;28;20060;-54
2021/01/05 06:33:53;;;;;;;67.82;21.15;;;;;;;2.96;65.00;100173.03;10416554;28;20143;-54
2021/01/05 06:38:55;;;;;;;109.25;28.10;;;;;;;3.08;64.15;100174.22;10417765;28;20057;-54
2021/01/05 06:43:57;;;;;;;70.07;21.63;;;;;;;3.30;64.53;100171.47;10416700;28;20477;-55
2021/01/05 06:48:59;;;;;;;59.10;19.05;;;;;;;3.35;64.42;100177.25;10416983;28;20116;-55
2021/01/05 06:54:01;;;;;;;61.60;19.88;;;;;;;3.40;64.20;100175.28;10416350;28;20048;-55
2021/01/05 06:59:03;;;;;;;74.82;22.75;;;;;;;3.50;64.27;100184.31;10418265;28;20609;-54
2021/01/05 07:04:05;;;;;;;79.47;19.45;;;;;;;3.40;64.48;100186.53;10424127;28;20045;-56
2021/01/05 07:09:06;;;;;;;83.72;22.02;;;;;;;3.31;64.87;100180.94;10423944;28;20144;-54
2021/01/05 07:14:09;;;;;;;100.22;24.33;;;;;;;3.27;64.80;100185.44;10423929;28;20493;-54
2021/01/05 07:19:11;;;;;;;69.53;19.67;;;;;;;3.23;64.74;100187.34;10424396;28;20077;-54
2021/01/05 07:24:13;;;;;;;229.82;38.53;;;;;;;3.32;64.54;100200.78;10423792;28;20199;-60
2021/01/05 07:29:19;;;;;;;212.02;34.20;;;;;;;3.41;64.04;100201.19;10439053;28;20115;-55
2021/01/05 07:34:21;;;;;;;176.73;31.95;;;;;;;3.40;64.11;100201.28;10425057;28;20078;-56
2021/01/05 07:39:25;;;;;;;139.20;24.08;;;;;;;3.43;64.74;100201.13;10424378;28;20049;-55
2021/01/05 07:44:27;;;;;;;;;;;;;;;3.41;64.62;100197.75;10423389;28;20069;-54
2021/01/05 07:49:28;;;;;;;157.93;27.30;;;;;;;3.47;64.87;100202.66;10423676;28;20361;-53
2021/01/05 07:54:30;;;;;;;76.07;20.75;;;;;;;3.60;64.76;100198.59;10424122;28;20077;-53
2021/01/05 07:59:33;;;;;;;115.07;21.65;;;;;;;3.69;64.60;100198.13;10423621;28;20061;-53
2021/01/05 08:04:34;;;;;;;76.30;16.65;;;;;;;3.73;64.46;100193.63;10423895;28;20410;-55
2021/01/05 08:09:38;;;;;;;119.35;22.92;;;;;;;3.73;65.14;100187.59;10420788;28;20054;-55
2021/01/05 08:14:41;;;;;;;113.72;22.15;;;;;;;3.86;65.54;100183.44;10421481;28;20037;-54
2021/01/05 08:19:44;;;;;;;53.90;15.98;;;;;;;4.07;64.61;100177.16;10422174;28;20056;-55
2021/01/05 08:24:45;;;;;;;207.02;31.27;;;;;;;4.10;64.38;100168.38;10421826;28;20064;-54
2021/01/05 08:29:48;;;;;;;104.47;19.90;;;;;;;4.01;64.72;100172.28;10424675;28;20049;-53
2021/01/05 08:34:50;;;;;;;87.55;19.10;;;;;;;4.05;65.02;100173.78;10420809;28;20417;-55
2021/01/05 08:39:51;;;;;;;44.90;14.07;;;;;;;4.07;64.63;100166.75;10421420;28;20144;-54
2021/01/05 08:44:54;;;;;;;43.10;14.05;;;;;;;3.95;64.83;100163.94;10435832;28;20515;-55
2021/01/05 08:49:55;;;;;;;38.75;13.68;;;;;;;3.90;64.30;100156.34;10420892;28;20478;-56
2021/01/05 08:54:57;;;;;;;58.15;15.65;;;;;;;3.90;64.44;100148.56;10420644;28;20155;-54
2021/01/05 09:00:01;;;;;;;33.45;11.52;;;;;;;3.84;64.13;100154.91;10420087;28;20494;-55
2021/01/05 09:05:02;;;;;;;;;;;;;;;3.89;64.35;100168.53;10419520;28;20041;-54
2021/01/05 09:10:05;;;;;;;35.53;12.30;;;;;;;3.96;63.85;100148.25;10419180;28;20024;-55
2021/01/05 09:15:12;;;;;;;30.83;10.73;;;;;;;3.97;64.18;100142.13;10418931;28;20067;-56
2021/01/05 09:20:16;;;;;;;30.90;10.43;;;;;;;3.71;63.85;100160.81;10419917;28;20757;-57
2021/01/05 09:25:18;;;;;;;29.85;10.73;;;;;;;3.71;64.16;100160.81;10418736;28;20374;-54
2021/01/05 09:30:22;;;;;;;34.58;11.23;;;;;;;3.79;64.46;100158.69;10420560;28;20050;-54
2021/01/05 09:35:24;;;;;;;32.80;12.48;;;;;;;3.76;64.26;100159.66;10418361;28;20136;-54
2021/01/05 09:40:26;;;;;;;32.90;11.80;;;;;;;3.57;64.12;100162.34;10419527;28;20053;-56
2021/01/05 09:45:28;;;;;;;30.45;12.13;;;;;;;3.36;63.84;100163.38;10434210;28;20053;-56
2021/01/05 09:50:30;;;;;;;36.97;12.35;;;;;;;3.34;64.37;100154.81;10418106;28;20130;-54
2021/01/05 09:55:32;;;;;;;33.78;10.80;;;;;;;3.19;64.19;100145.97;10417438;28;20052;-54
2021/01/05 10:00:35;;;;;;;31.48;11.50;;;;;;;3.15;64.30;100140.09;10417974;28;20057;-56
2021/01/05 10:05:36;;;;;;;32.35;11.50;;;;;;;3.19;64.19;100145.97;10417595;28;20553;-54
2021/01/05 10:10:38;;;;;;;27.15;9.10;;;;;;;3.19;64.11;100145.97;10417773;28;20064;-54
2021/01/05 10:15:40;;;;;;;28.88;9.68;;;;;;;2.98;63.58;100145.22;10416967;28;20053;-55
2021/01/05 10:20:42;;;;;;;29.52;11.73;;;;;;;2.71;63.93;100127.44;10417127;28;20053;-55
2021/01/05 10:25:44;;;;;;;28.60;11.27;;;;;;;2.71;64.18;100132.63;10417979;28;20045;-55
2021/01/05 10:30:46;;;;;;;28.83;9.25;;;;;;;2.70;63.83;100135.28;10416483;28;20560;-54
2021/01/05 10:35:48;;;;;;;29.50;9.60;;;;;;;2.56;63.99;100128.13;10421550;28;20080;-55
2021/01/05 10:40:52;;;;;;;25.88;10.00;;;;;;;2.61;64.60;100130.50;10426989;28;20470;-53
2021/01/05 10:45:54;;;;;;;34.55;12.63;;;;;;;2.72;64.59;100123.91;10441249;28;20053;-56
2021/01/05 10:50:56;;;;;;;25.45;9.23;;;;;;;2.81;64.89;100127.00;10425593;28;20050;-55
2021/01/05 10:55:57;;;;;;;30.48;11.77;;;;;;;2.76;64.36;100130.66;10426612;28;20450;-55
2021/01/05 11:01:00;;;;;;;27.15;11.27;;;;;;;2.81;64.62;100129.59;10424589;28;20065;-56
2021/01/05 11:06:02;;;;;;;27.17;10.63;;;;;;;2.85;64.46;100125.94;10424259;28;20045;-55
2021/01/05 11:11:04;;;;;;;29.38;12.15;;;;;;;2.87;64.68;100134.53;10423838;28;20041;-54
2021/01/05 11:16:06;;;;;;;32.75;12.18;;;;;;;2.88;64.70;100125.81;10423636;28;20083;-55
2021/01/05 11:21:10;;;;;;;31.63;10.75;;;;;;;2.80;63.88;100114.91;10425242;28;20053;-55
2021/01/05 11:26:12;;;;;;;29.63;11.75;;;;;;;2.71;64.51;100122.25;10424057;28;20045;-54
2021/01/05 11:31:15;;;;;;;23.33;9.05;;;;;;;2.66;63.95;100116.41;10423667;28;20053;-54
2021/01/05 11:36:24;;;;;;;25.13;11.00;;;;;;;2.71;64.43;100111.88;10424137;28;20405;-54
2021/01/05 11:41:30;;;;;;;28.40;11.35;;;;;;;2.78;63.74;100116.78;10424438;28;20053;-60
2021/01/05 11:46:32;;;;;;;32.50;12.57;;;;;;;2.71;63.81;100117.06;10421653;28;20041;-55
2021/01/05 11:51:37;;;;;;;33.17;11.65;;;;;;;2.68;64.21;100119.78;10422735;28;20049;-54
2021/01/05 11:56:39;;;;;;;19.55;6.45;;;;;;;2.63;63.48;100119.16;10423432;28;20060;-58
2021/01/05 12:01:42;;;;;;;25.40;10.85;;;;;;;2.30;63.76;100104.19;10422176;28;20066;-53
2021/01/05 12:06:47;;;;;;;23.07;10.07;;;;;;;2.26;63.72;100107.00;10423870;28;20386;-60
2021/01/05 12:11:49;;;;;;;27.27;10.00;;;;;;;2.27;64.18;100114.69;10423413;28;20303;-55
2021/01/05 12:16:52;;;;;;;24.42;8.63;;;;;;;2.24;64.11;100107.06;10421318;28;20045;-55
2021/01/05 12:21:56;;;;;;;16.73;5.93;;;;;;;2.17;63.63;100103.06;10421898;28;20059;-54
2021/01/05 12:26:58;;;;;;;24.77;8.20;;;;;;;2.06;63.24;100105.25;10422193;28;20072;-56
2021/01/05 12:32:04;;;;;;;29.33;11.10;;;;;;;1.88;63.99;100103.47;10420788;28;20124;-54
2021/01/05 12:37:08;;;;;;;24.25;9.45;;;;;;;1.77;63.65;100109.13;10421826;28;20046;-56
2021/01/05 12:42:12;;;;;;;23.90;8.40;;;;;;;1.65;63.99;100100.13;10436921;28;20045;-56
2021/01/05 12:47:14;;;;;;;31.70;13.95;;;;;;;1.63;64.47;100099.31;10420552;28;20060;-55
2021/01/05 12:52:17;;;;;;;31.88;11.98;;;;;;;1.73;63.96;100102.41;10420947;28;20064;-55
2021/01/05 12:57:20;;;;;;;27.30;9.98;;;;;;;1.69;63.51;100101.66;10420605;28;20103;-53
2021/01/05 13:02:25;;;;;;;30.42;11.00;;;;;;;1.63;63.93;100109.69;10419904;28;20071;-54
2021/01/05 13:07:27;;;;;;;31.63;11.70;;;;;;;1.65;64.13;100112.22;10420287;28;20052;-55
2021/01/05 13:12:28;;;;;;;27.48;10.48;;;;;;;1.68;64.52;100104.34;10421217;28;20060;-55
2021/01/05 13:17:31;;;;;;;21.33;7.35;;;;;;;1.75;64.03;100111.75;10418865;28;20501;-56
2021/01/05 13:22:32;;;;;;;27.05;10.68;;;;;;;1.69;63.88;100113.78;10419324;28;20119;-53
2021/01/05 13:27:34;;;;;;;21.20;8.98;;;;;;;1.76;64.16;100113.47;10419797;28;20468;-54
2021/01/05 13:32:37;;;;;;;21.67;7.50;;;;;;;1.69;63.75;100114.63;10420771;28;20119;-53
2021/01/05 13:37:38;;;;;;;18.08;8.45;;;;;;;1.66;64.18;100113.91;10419188;28;20042;-53
2021/01/05 13:42:40;;;;;;;18.73;6.72;;;;;;;1.63;64.11;100117.47;10417827;28;20394;-54
2021/01/05 13:47:43;;;;;;;10.73;3.83;;;;;;;1.52;63.54;100130.88;10417677;28;20493;-55
2021/01/05 13:52:48;;;;;;;16.20;6.63;;;;;;;1.44;64.18;100116.56;10419302;28;20088;-56
2021/01/05 13:57:50;;;;;;;13.98;5.85;;;;;;;1.40;63.41;100125.38;10417457;28;20466;-56
2021/01/05 14:02:54;;;;;;;13.15;5.50;;;;;;;1.34;63.92;100108.31;10417519;28;20382;-53
2021/01/05 14:07:55;;;;;;;15.55;6.63;;;;;;;1.26;63.99;100103.47;10416502;28;20405;-54
2021/01/05 14:12:57;;;;;;;29.00;10.48;;;;;;;1.23;64.18;100106.19;10417257;28;20057;-54
2021/01/05 14:17:59;;;;;;;18.55;6.93;;;;;;;1.26;63.74;100087.91;10416916;28;20474;-55
2021/01/05 14:23:01;;;;;;;23.08;8.02;;;;;;;1.34;63.88;100096.19;10417340;28;20061;-55
2021/01/05 14:28:03;;;;;;;16.55;6.30;;;;;;;1.44;63.63;100090.66;10417043;28;20049;-54
2021/01/05 14:33:06;;;;;;;18.33;7.93;;;;;;;1.41;63.29;100095.94;10416439;28;20049;-53
2021/01/05 14:38:07;;;;;;;13.60;6.40;;;;;;;1.41;64.09;100095.94;10417412;28;20594;-57
2021/01/05 14:43:09;;;;;;;12.25;5.97;;;;;;;1.38;63.15;100091.72;10419040;28;20617;-54
2021/01/05 14:48:12;;;;;;;14.48;6.25;;;;;;;1.30;63.11;100099.84;10416424;28;20483;-55
2021/01/05 14:53:16;;;;;;;15.10;6.90;;;;;;;1.22;63.18;100094.09;10416230;28;20417;-54
2021/01/05 14:58:17;;;;;;;14.23;5.68;;;;;;;1.19;63.39;100089.06;10417134;28;20083;-54
2021/01/05 15:03:20;;;;;;;14.63;5.50;;;;;;;1.28;63.90;100096.44;10418179;28;20045;-54
2021/01/05 15:08:21;;;;;;;13.98;6.20;;;;;;;1.42;63.81;100079.50;10417518;28;20049;-54
2021/01/05 15:13:24;;;;;;;14.80;6.28;;;;;;;1.58;63.93;100089.16;10416254;28;20042;-54
2021/01/05 15:18:27;;;;;;;19.23;7.93;;;;;;;1.66;63.72;100095.75;10416944;28;20115;-54
2021/01/05 15:23:28;;;;;;;13.13;5.97;;;;;;;1.70;63.15;100098.19;10423969;28;20160;-55
2021/01/05 15:28:30;;;;;;;16.95;6.65;;;;;;;1.69;63.38;100096.47;10423316;28;20525;-54
2021/01/05 15:33:33;;;;;;;15.43;7.78;;;;;;;1.70;63.34;100095.59;10424295;28;20183;-55
2021/01/05 15:38:35;;;;;;;14.88;7.68;;;;;;;1.74;63.01;100094.53;10422818;28;20056;-54
2021/01/05 15:43:38;;;;;;;11.52;5.43;;;;;;;1.82;63.43;100091.63;10423733;28;20042;-56
2021/01/05 15:48:40;;;;;;;12.30;6.05;;;;;;;2.00;63.46;100095.16;10423292;28;20049;-54
2021/01/05 15:53:42;;;;;;;14.45;6.40;;;;;;;2.12;63.11;100084.25;10421961;28;20095;-56
2021/01/05 15:58:43;;;;;;;13.57;6.43;;;;;;;2.03;62.89;100080.34;10422300;28;20057;-54
2021/01/05 16:03:46;;;;;;;11.77;5.28;;;;;;;1.80;62.64;100083.91;10422713;28;20060;-56
2021/01/05 16:08:48;;;;;;;15.25;7.10;;;;;;;1.46;62.74;100068.13;10422607;28;20132;-55
2021/01/05 16:13:50;;;;;;;15.88;7.28;;;;;;;1.44;63.29;100060.38;10421743;28;20061;-54
2021/01/05 16:18:54;;;;;;;11.00;5.18;;;;;;;1.44;63.10;100062.16;10421846;28;20045;-56
2021/01/05 16:23:56;;;;;;;10.32;4.63;;;;;;;1.53;62.60;100065.19;10421140;28;20107;-55
2021/01/05 16:28:57;;;;;;;9.63;4.57;;;;;;;1.38;62.45;100065.81;10421097;28;20413;-53
2021/01/05 16:34:00;;;;;;;10.73;4.80;;;;;;;1.24;62.45;100069.00;10421019;28;20049;-54
2021/01/05 16:39:02;;;;;;;8.27;3.10;;;;;;;1.21;62.50;100058.78;10422836;28;20064;-54
2021/01/05 16:44:05;;;;;;;11.68;5.80;;;;;;;1.23;62.90;100046.63;10420950;28;20050;-55
2021/01/05 16:49:07;;;;;;;10.55;4.25;;;;;;;1.39;63.11;100046.81;10420087;28;20061;-54
2021/01/05 16:54:09;;;;;;;10.50;4.65;;;;;;;1.41;62.34;100044.13;10420512;28;20060;-54
2021/01/05 16:59:11;;;;;;;11.98;5.20;;;;;;;1.45;62.25;100050.88;10420699;28;20065;-54
2021/01/05 17:04:15;;;;;;;5.93;3.08;;;;;;;1.37;61.77;100043.44;10420296;28;20056;-53
2021/01/05 17:09:19;;;;;;;11.75;5.15;;;;;;;1.10;61.69;100045.41;10420111;28;20061;-56
2021/01/05 17:14:21;;;;;;;8.95;3.63;;;;;;;0.91;61.97;100048.75;10435591;28;20057;-55
2021/01/05 17:19:24;;;;;;;13.55;5.32;;;;;;;0.99;62.67;100052.78;10434509;28;20053;-53
2021/01/05 17:24:25;;;;;;;13.27;6.40;;;;;;;0.98;62.57;100041.56;10435466;28;20072;-54
2021/01/05 17:29:27;;;;;;;16.27;7.00;;;;;;;1.04;62.23;100050.84;10418902;28;20498;-54
2021/01/05 17:34:30;;;;;;;17.52;7.07;;;;;;;1.07;62.02;100045.53;10419334;28;20049;-58
2021/01/05 17:39:32;;;;;;;15.98;5.35;;;;;;;1.06;62.56;100044.69;10418386;28;20049;-53
2021/01/05 17:44:33;;;;;;;15.05;6.50;;;;;;;1.07;62.13;100040.34;10420213;28;20056;-53
2021/01/05 17:49:36;;;;;;;16.67;7.78;;;;;;;1.12;62.35;100049.63;10419838;28;20057;-54
2021/01/05 17:54:38;;;;;;;19.67;8.18;;;;;;;1.27;62.48;100030.03;10418579;28;20049;-54
2021/01/05 17:59:39;;;;;;;19.55;7.88;;;;;;;1.28;62.00;100034.28;10419522;28;20053;-53
2021/01/05 18:04:42;;;;;;;22.35;7.95;;;;;;;1.14;62.59;100024.53;10418120;28;20046;-54
2021/01/05 18:09:44;;;;;;;14.88;6.15;;;;;;;1.02;62.47;100017.25;10417129;28;20053;-54
2021/01/05 18:14:47;;;;;;;18.52;7.30;;;;;;;0.98;62.25;100030.38;10417196;28;20053;-54
2021/01/05 18:19:50;;;;;;;17.45;7.35;;;;;;;0.98;62.49;100038.13;10417259;28;20053;-54
2021/01/05 18:24:52;;;;;;;11.90;4.80;;;;;;;0.86;62.77;100027.41;10417982;28;20092;-54
2021/01/05 18:29:54;;;;;;;15.93;5.95;;;;;;;0.73;63.16;100033.94;10418168;28;20136;-55
2021/01/05 18:34:56;;;;;;;15.23;5.82;;;;;;;0.56;63.84;100018.25;10417634;28;20056;-56
2021/01/05 18:39:58;;;;;;;12.07;4.37;;;;;;;0.53;63.49;100023.53;10417506;28;20425;-54
2021/01/05 18:45:00;;;;;;;11.57;4.70;;;;;;;0.45;63.71;100006.56;10417239;28;20079;-53
2021/01/05 18:50:03;;;;;;;12.70;5.40;;;;;;;0.49;63.92;100017.63;10432232;28;20053;-55
2021/01/05 18:55:06;;;;;;;12.05;6.10;;;;;;;0.37;63.59;100013.78;10419720;28;20049;-54
2021/01/05 19:00:09;;;;;;;15.23;5.90;;;;;;;0.56;63.65;100005.31;10425318;28;20133;-55
2021/01/05 19:05:12;;;;;;;13.13;6.15;;;;;;;0.93;63.23;100006.44;10425165;28;20144;-52
2021/01/05 19:10:17;;;;;;;10.52;5.00;;;;;;;1.09;63.06;99997.13;10424208;28;20424;-54
2021/01/05 19:15:20;;;;;;;13.48;6.40;;;;;;;1.08;62.45;100005.81;10424783;28;20056;-56
2021/01/05 19:20:28;;;;;;;16.70;4.70;;;;;;;0.99;62.20;99988.06;10424118;28;20053;-54
2021/01/05 19:25:32;;;;;;;18.25;6.78;;;;;;;0.73;62.28;100000.28;10424207;28;20038;-55
2021/01/05 19:30:35;;;;;;;9.95;4.05;;;;;;;0.58;62.52;99993.16;10424742;28;20045;-54
2021/01/05 19:35:38;;;;;;;14.48;6.65;;;;;;;0.45;62.74;99991.03;10424365;28;20115;-54
2021/01/05 19:40:43;;;;;;;18.02;8.45;;;;;;;0.51;62.58;99989.13;10424721;28;20060;-53
2021/01/05 19:45:57;;;;;;;15.82;6.93;;;;;;;0.44;62.49;99984.19;10425064;28;20046;-55
2021/01/05 19:51:00;;;;;;;13.85;5.15;;;;;;;0.37;62.12;99998.28;10424009;28;20502;-54
2021/01/05 19:56:02;;;;;;;7.70;3.77;;;;;;;0.31;62.45;99995.06;10423112;28;20069;-55
2021/01/05 20:01:06;;;;;;;7.68;3.08;;;;;;;0.18;62.17;99994.69;10422260;28;20696;-54
2021/01/05 20:06:16;;;;;;;;;;;;;;;0.25;62.63;99982.34;10422801;28;20144;-54
2021/01/05 20:11:21;;;;;;;12.27;5.53;;;;;;;0.24;61.88;99986.69;10422061;28;19936;-54
2021/01/05 20:16:26;;;;;;;12.77;4.10;;;;;;;0.13;61.85;99987.13;10437041;28;20050;-54
2021/01/05 20:21:28;;;;;;;15.70;6.45;;;;;;;0.07;62.21;99994.25;10425017;28;20053;-54
2021/01/05 20:26:30;;;;;;;12.95;5.90;;;;;;;-0.05;62.64;99985.22;10423157;28;20379;-57
2021/01/05 20:31:33;;;;;;;15.05;5.70;;;;;;;0.05;62.94;99977.97;10420987;28;20470;-54
2021/01/05 20:36:39;;;;;;;13.23;4.90;;;;;;;0.09;63.05;99984.69;10420804;28;20445;-55
2021/01/05 20:41:44;;;;;;;12.90;6.03;;;;;;;0.13;62.77;99994.03;10420751;28;20041;-54
2021/01/05 20:46:46;;;;;;;9.85;3.67;;;;;;;0.02;62.44;99994.41;10421012;28;20472;-54
2021/01/05 20:51:48;;;;;;;13.23;3.55;;;;;;;0.01;62.83;99986.75;10422020;28;20414;-55
2021/01/05 20:56:50;;;;;;;9.30;3.73;;;;;;;-0.12;62.67;99978.59;10421478;28;20045;-56
2021/01/05 21:01:52;;;;;;;14.43;4.25;;;;;;;-0.13;62.86;99988.06;10420976;28;20103;-54
2021/01/05 21:06:54;;;;;;;15.60;5.88;;;;;;;-0.06;63.02;99971.47;10436128;28;20394;-55
2021/01/05 21:11:56;;;;;;;11.60;4.10;;;;;;;0.04;63.05;99981.44;10419739;28;20063;-55
2021/01/05 21:16:59;;;;;;;8.93;3.78;;;;;;;0.13;62.92;99973.34;10420348;28;20116;-55
2021/01/05 21:22:03;;;;;;;7.18;2.92;;;;;;;0.13;62.67;99984.53;10420328;28;20068;-53
2021/01/05 21:27:05;;;;;;;9.63;3.03;;;;;;;-0.06;62.47;99989.56;10420173;28;20437;-59
2021/01/05 21:32:07;;;;;;;8.88;3.35;;;;;;;-0.15;63.16;99969.22;10419074;28;20130;-54
2021/01/05 21:37:10;;;;;;;11.70;3.40;;;;;;;-0.14;63.00;99967.47;10418681;28;20041;-54
2021/01/05 21:42:12;;;;;;;7.55;2.88;;;;;;;-0.01;62.72;99961.78;10419506;28;20049;-54
2021/01/05 21:47:14;;;;;;;7.07;2.28;;;;;;;0.01;62.37;99958.31;10418752;28;20056;-53
2021/01/05 21:52:17;;;;;;;6.55;2.25;;;;;;;-0.09;62.70;99956.06;10418951;28;20049;-55
2021/01/05 21:57:19;;;;;;;9.30;3.72;;;;;;;-0.11;62.54;99950.09;10418727;28;20060;-55
2021/01/05 22:02:21;;;;;;;8.73;3.13;;;;;;;-0.18;62.46;99950.41;10418528;28;20065;-51
2021/01/05 22:07:23;;;;;;;7.93;2.58;;;;;;;-0.15;62.71;99966.63;10418509;28;20470;-54
2021/01/05 22:12:25;;;;;;;14.02;5.97;;;;;;;-0.15;62.62;99961.47;10417189;28;20115;-54
2021/01/05 22:17:27;;;;;;;8.48;3.72;;;;;;;-0.08;62.48;99957.75;10418491;28;20045;-55
2021/01/05 22:22:29;;;;;;;15.20;5.65;;;;;;;-0.02;62.03;99942.00;10417158;28;20091;-55
2021/01/05 22:27:31;;;;;;;17.73;6.40;;;;;;;-0.03;61.88;99942.91;10417553;28;20045;-55
2021/01/05 22:32:33;;;;;;;11.05;4.30;;;;;;;0.00;62.18;99944.56;10416619;28;20056;-55
2021/01/05 22:37:35;;;;;;;16.50;6.82;;;;;;;-0.07;62.29;99928.41;10418639;28;20048;-53
2021/01/05 22:42:37;;;;;;;16.70;7.63;;;;;;;-0.14;61.82;99939.03;10417842;28;20060;-54
2021/01/05 22:47:40;;;;;;;13.77;5.80;;;;;;;-0.14;62.18;99926.13;10416464;28;20418;-54
2021/01/05 22:52:43;;;;;;;;;;;;;;;-0.11;62.43;99911.34;10417351;28;20050;-56
2021/01/05 22:57:45;;;;;;;13.20;5.47;;;;;;;0.03;62.23;99915.13;10419919;28;19936;-54
2021/01/05 23:02:47;;;;;;;13.55;5.68;;;;;;;0.19;61.89;99914.50;10417207;28;20403;-55
2021/01/05 23:07:50;;;;;;;15.52;5.28;;;;;;;0.24;61.69;99909.13;10416412;28;20057;-54
2021/01/05 23:12:53;;;;;;;13.55;5.97;;;;;;;0.22;61.76;99898.03;10417500;28;20084;-54
2021/01/05 23:17:55;;;;;;;16.03;6.37;;;;;;;0.18;62.20;99891.28;10416915;28;20041;-54